Patterson Heights, Pennsylvania
Current Conditions -  °F | °C
As of 5:47 PM on Thursday 20 Nov 2014 (Local Time) from KBVI Reporting Station
Overcast Overcast  
Wind Chill: 15°   Ceiling: 3800
Heat Index: 25°   Visibility: 10mi
Dew Point: 14°   Wind: 10mph
Humidity: 64%   Direction: 240°WSW
Pressure: 30.02"   Gusts: 16mph
Location:  40.7641°N, 80.3864°W
Report Text: KBVI 202247Z 24009G14KT 10SM BKN038 OVC046 M04/M10 A3002
Loading
Personal Weather Stations






























Interactive Weather Map New forecast layout! Learn more

10-Day Weather Forecast

Advertisements
Track Severe Weather on mobile